Time;durP1;ratioP1;P1;durP2;ratioP2;P2;SDS_P1;SDS_P2;PMS_P1;PMS_P2;Temp;Humidity;BMP_temperature;BMP_pressure;BME280_temperature;BME280_humidity;BME280_pressure;Samples;Min_cycle;Max_cycle;Signal;HPM_P1;HPM_P2
2022/03/27 00:02:34;;;;;;;9.68;3.80;;;;;;;5.89;100.00;102988.91;6271748;28;20045;-75
2022/03/27 00:05:36;;;;;;;8.18;3.65;;;;;;;5.97;100.00;102990.72;6271105;28;20045;-75
2022/03/27 00:08:37;;;;;;;5.95;3.38;;;;;;;5.91;100.00;102990.69;6278180;28;20059;-75
2022/03/27 00:11:40;;;;;;;6.47;2.97;;;;;;;5.91;100.00;102989.81;6267729;28;20523;-74
2022/03/27 00:14:41;;;;;;;5.40;2.92;;;;;;;5.95;100.00;102987.25;6272383;28;20045;-75
2022/03/27 00:17:43;;;;;;;9.43;4.53;;;;;;;5.91;100.00;102995.88;6280432;28;20055;-75
2022/03/27 00:20:44;;;;;;;7.50;3.33;;;;;;;5.85;100.00;102981.06;6271514;28;20048;-75
2022/03/27 00:23:47;;;;;;;6.63;2.88;;;;;;;5.80;100.00;102992.38;6272050;28;20511;-74
2022/03/27 00:26:50;;;;;;;7.82;3.90;;;;;;;5.82;100.00;102991.53;6271904;28;20045;-74
2022/03/27 00:29:52;;;;;;;5.43;3.15;;;;;;;5.83;100.00;102987.16;6275910;28;20048;-74
2022/03/27 00:32:53;;;;;;;8.55;3.00;;;;;;;5.82;100.00;102985.44;6287909;28;20044;-75
2022/03/27 00:35:54;;;;;;;7.75;4.03;;;;;;;5.74;100.00;102988.00;6296137;28;20045;-74
2022/03/27 00:38:56;;;;;;;7.30;4.15;;;;;;;5.71;100.00;102990.59;6271797;28;20045;-75
2022/03/27 00:41:59;;;;;;;7.35;3.92;;;;;;;5.77;100.00;102988.03;6271228;28;20052;-74
2022/03/27 00:45:00;;;;;;;7.63;4.18;;;;;;;5.78;100.00;102987.16;6271899;28;20053;-75
2022/03/27 00:48:02;;;;;;;13.75;5.78;;;;;;;5.76;100.00;102981.03;6271407;28;20413;-75
2022/03/27 00:51:04;;;;;;;9.07;4.75;;;;;;;5.72;100.00;102979.31;6271088;28;20060;-75
2022/03/27 00:54:05;;;;;;;10.73;5.72;;;;;;;5.73;100.00;102985.41;6271546;28;20048;-75
2022/03/27 00:57:08;;;;;;;10.52;5.72;;;;;;;5.83;100.00;102982.81;6271474;28;20049;-74
2022/03/27 01:00:19;;;;;;;17.27;5.43;;;;;;;5.78;100.00;102981.06;6271155;28;20049;-75
2022/03/27 01:03:23;;;;;;;11.48;4.85;;;;;;;5.70;100.00;102980.16;6271303;28;20424;-74
2022/03/27 01:06:30;;;;;;;13.00;5.45;;;;;;;5.63;100.00;102976.66;6271182;28;20401;-75
2022/03/27 01:09:37;;;;;;;12.20;6.00;;;;;;;5.54;100.00;102977.53;6271650;28;20646;-75
2022/03/27 01:12:42;;;;;;;12.32;6.43;;;;;;;5.55;100.00;102981.88;6270652;28;20415;-75
2022/03/27 01:15:47;;;;;;;12.90;5.82;;;;;;;5.55;100.00;102970.56;6272708;28;20052;-75
2022/03/27 01:18:48;;;;;;;14.45;5.38;;;;;;;5.57;100.00;102972.31;6276376;28;20049;-74
2022/03/27 01:21:51;;;;;;;12.80;5.80;;;;;;;5.67;100.00;102974.94;6275889;28;20055;-75
2022/03/27 01:24:54;;;;;;;15.15;6.72;;;;;;;5.73;100.00;102969.75;6276227;28;20511;-75
2022/03/27 01:27:56;;;;;;;15.27;6.13;;;;;;;5.73;100.00;102972.38;6276448;28;20049;-75
2022/03/27 01:30:57;;;;;;;9.90;4.45;;;;;;;5.69;100.00;102970.63;6275671;28;20059;-75
2022/03/27 01:33:59;;;;;;;16.10;4.95;;;;;;;5.64;100.00;102973.22;6275971;28;20051;-75
2022/03/27 01:37:07;;;;;;;10.63;4.68;;;;;;;5.71;100.00;102976.69;6276097;28;20049;-74
2022/03/27 01:40:10;;;;;;;9.83;4.70;;;;;;;5.75;100.00;102970.63;6275558;28;20094;-75
2022/03/27 01:43:11;;;;;;;8.63;4.35;;;;;;;5.76;100.00;102965.41;6275639;28;20044;-75
2022/03/27 01:46:13;;;;;;;9.50;4.50;;;;;;;5.77;100.00;102971.50;6275731;28;20507;-75
2022/03/27 01:49:16;;;;;;;11.60;5.22;;;;;;;5.83;100.00;102967.16;6275700;28;20056;-75
2022/03/27 01:52:19;;;;;;;8.77;4.38;;;;;;;5.80;100.00;102974.09;6274987;28;20132;-75
2022/03/27 01:55:20;;;;;;;5.90;3.25;;;;;;;5.78;100.00;102968.03;6273628;28;20051;-75
2022/03/27 01:58:22;;;;;;;8.77;4.00;;;;;;;5.77;100.00;102975.00;6290364;28;20044;-75
2022/03/27 02:01:23;;;;;;;9.07;3.88;;;;;;;5.79;100.00;102983.69;6293843;28;20102;-75
2022/03/27 02:04:24;;;;;;;8.60;3.63;;;;;;;5.85;100.00;102978.47;6291724;28;20419;-75
2022/03/27 02:07:27;;;;;;;8.98;3.30;;;;;;;5.85;100.00;102978.47;6299327;28;20056;-75
2022/03/27 02:10:28;;;;;;;7.78;3.70;;;;;;;5.85;100.00;102973.25;6291059;28;20488;-75
2022/03/27 02:13:30;;;;;;;8.60;4.35;;;;;;;5.85;100.00;102986.28;6299806;28;20049;-75
2022/03/27 02:16:31;;;;;;;12.20;5.18;;;;;;;5.83;100.00;102982.81;6296095;28;20045;-74
2022/03/27 02:19:32;;;;;;;4.78;3.47;;;;;;;5.82;100.00;102975.88;6287904;28;20060;-75
2022/03/27 02:22:35;;;;;;;8.23;3.75;;;;;;;5.80;100.00;102972.38;6299174;28;20053;-75
2022/03/27 02:25:37;;;;;;;10.90;3.95;;;;;;;5.76;100.00;102981.03;6299766;28;20051;-75
2022/03/27 02:28:40;;;;;;;6.50;3.13;;;;;;;5.75;100.00;102984.53;6299292;28;20424;-75
2022/03/27 02:31:41;;;;;;;7.97;4.88;;;;;;;5.78;100.00;102984.53;6298924;28;20511;-74
2022/03/27 02:34:43;;;;;;;8.13;3.45;;;;;;;5.74;100.00;102981.94;6299635;28;20048;-75
2022/03/27 02:37:45;;;;;;;4.97;3.00;;;;;;;5.75;100.00;102976.69;6299517;28;20059;-75
2022/03/27 02:40:47;;;;;;;8.43;3.75;;;;;;;5.76;100.00;102993.22;6298933;28;20048;-75
2022/03/27 02:43:48;;;;;;;11.45;4.13;;;;;;;5.75;100.00;102986.28;6299309;28;20059;-74
2022/03/27 02:46:50;;;;;;;13.00;4.20;;;;;;;5.66;100.00;102986.25;6299170;28;20052;-75
2022/03/27 02:49:51;;;;;;;15.02;4.00;;;;;;;5.66;100.00;102988.84;6298885;28;20139;-75
2022/03/27 02:52:54;;;;;;;12.00;4.63;;;;;;;5.40;100.00;102973.09;6298720;28;20071;-75
2022/03/27 02:55:56;;;;;;;10.07;3.85;;;;;;;5.43;100.00;102983.56;6299089;28;20048;-75
2022/03/27 02:58:57;;;;;;;8.32;4.32;;;;;;;5.48;100.00;102977.47;6298219;28;20123;-74
2022/03/27 03:02:00;;;;;;;10.85;5.00;;;;;;;5.55;100.00;102974.06;6298362;28;20059;-74
2022/03/27 03:05:02;;;;;;;16.98;4.53;;;;;;;5.58;100.00;102973.16;6298872;28;20044;-75
2022/03/27 03:08:10;;;;;;;10.73;4.68;;;;;;;5.53;100.00;102967.94;6299103;28;20052;-75
2022/03/27 03:11:13;;;;;;;15.68;4.88;;;;;;;5.56;100.00;102973.19;6297978;28;20052;-75
2022/03/27 03:14:15;;;;;;;10.63;4.65;;;;;;;5.65;100.00;102967.13;6299177;28;20060;-75
2022/03/27 03:17:16;;;;;;;6.38;3.88;;;;;;;5.70;100.00;102968.00;6278750;28;20047;-75
2022/03/27 03:20:19;;;;;;;14.48;4.97;;;;;;;5.70;100.00;102968.00;6273177;28;20420;-74
2022/03/27 03:23:21;;;;;;;13.40;4.03;;;;;;;5.70;100.00;102965.38;6273548;28;20053;-76
2022/03/27 03:26:23;;;;;;;9.32;4.40;;;;;;;5.66;100.00;102963.63;6273343;28;20060;-74
2022/03/27 03:29:25;;;;;;;13.77;5.72;;;;;;;5.74;100.00;102961.06;6273475;28;20398;-75
2022/03/27 03:32:26;;;;;;;15.32;5.20;;;;;;;5.67;100.00;102965.38;6272653;28;20524;-74
2022/03/27 03:35:27;;;;;;;12.02;4.93;;;;;;;5.70;100.00;102961.91;6273439;28;20052;-75
2022/03/27 03:38:30;;;;;;;17.17;5.88;;;;;;;5.64;100.00;102965.38;6272140;28;20056;-75
2022/03/27 03:41:32;;;;;;;13.07;4.75;;;;;;;5.65;100.00;102963.66;6272441;28;20412;-75
2022/03/27 03:44:33;;;;;;;13.55;5.25;;;;;;;5.68;100.00;102967.13;6273057;28;20052;-75
2022/03/27 03:47:35;;;;;;;14.27;4.82;;;;;;;5.62;100.00;102971.44;6272986;28;20057;-75
2022/03/27 03:50:36;;;;;;;9.77;4.45;;;;;;;5.66;100.00;102973.19;6272375;28;20069;-75
2022/03/27 03:53:39;;;;;;;6.85;3.58;;;;;;;5.66;100.00;102970.59;6273054;28;20067;-75
2022/03/27 03:56:40;;;;;;;7.65;3.72;;;;;;;5.71;100.00;102967.13;6276426;28;20059;-75
2022/03/27 03:59:41;;;;;;;10.00;4.97;;;;;;;5.71;100.00;102966.25;6285736;28;20508;-74
2022/03/27 04:02:43;;;;;;;9.02;4.50;;;;;;;5.65;100.00;102964.50;6272344;28;20507;-75
2022/03/27 04:05:44;;;;;;;8.45;4.30;;;;;;;5.63;100.00;102965.34;6276960;28;20040;-75
2022/03/27 04:08:47;;;;;;;12.85;4.60;;;;;;;5.62;100.00;102966.22;6289161;28;20048;-75
2022/03/27 04:11:49;;;;;;;7.45;3.83;;;;;;;5.60;100.00;102968.84;6296652;28;20044;-74
2022/03/27 04:14:50;;;;;;;9.27;5.10;;;;;;;5.60;100.00;102971.44;6297118;28;20462;-75
2022/03/27 04:17:52;;;;;;;11.50;5.07;;;;;;;5.49;100.00;102970.53;6296863;28;20056;-75
2022/03/27 04:20:53;;;;;;;10.45;4.05;;;;;;;5.53;100.00;102978.38;6289695;28;20071;-75
2022/03/27 04:23:56;;;;;;;9.20;4.07;;;;;;;5.50;100.00;102969.69;6288679;28;20044;-75
2022/03/27 04:26:57;;;;;;;13.70;5.00;;;;;;;5.49;100.00;102976.63;6296973;28;20139;-75
2022/03/27 04:30:00;;;;;;;7.80;4.40;;;;;;;5.54;100.00;102963.59;6284080;28;20493;-74
2022/03/27 04:33:01;;;;;;;18.83;6.15;;;;;;;5.47;100.00;102970.53;6271331;28;20131;-74
2022/03/27 04:36:04;;;;;;;10.55;4.57;;;;;;;5.48;100.00;102977.47;6271952;28;20045;-75
2022/03/27 04:39:06;;;;;;;13.70;5.13;;;;;;;5.47;100.00;102974.88;6271167;28;20055;-75
2022/03/27 04:42:09;;;;;;;11.23;5.20;;;;;;;5.45;100.00;102979.19;6270546;28;20120;-75
2022/03/27 04:45:12;;;;;;;19.52;6.72;;;;;;;5.49;100.00;102970.53;6271683;28;20055;-74
2022/03/27 04:48:13;;;;;;;21.10;6.70;;;;;;;5.58;100.00;102968.81;6271919;28;20045;-75
2022/03/27 04:51:16;;;;;;;19.23;5.90;;;;;;;5.68;100.00;102974.06;6270860;28;20053;-74
2022/03/27 04:54:19;;;;;;;15.13;7.07;;;;;;;5.69;100.00;102976.69;6271114;28;20128;-75
2022/03/27 04:57:21;;;;;;;13.50;6.13;;;;;;;5.74;100.00;102967.16;6255192;28;20044;-74
2022/03/27 05:00:23;;;;;;;21.70;6.88;;;;;;;5.78;100.00;102963.69;6269468;28;20052;-74
2022/03/27 05:03:25;;;;;;;15.52;5.90;;;;;;;5.70;100.00;102948.88;6269907;28;20052;-74
2022/03/27 05:06:26;;;;;;;21.75;7.43;;;;;;;5.69;100.00;102945.41;6270221;28;20049;-75
2022/03/27 05:09:29;;;;;;;19.92;7.00;;;;;;;5.72;100.00;102950.63;6269679;28;20071;-75
2022/03/27 05:12:30;;;;;;;19.65;7.22;;;;;;;5.76;100.00;102943.66;6269560;28;20052;-75
2022/03/27 05:15:31;;;;;;;16.63;6.35;;;;;;;5.76;100.00;102939.31;6270413;28;20056;-74
2022/03/27 05:18:33;;;;;;;18.70;7.70;;;;;;;5.73;100.00;102930.63;6270925;28;20467;-74
2022/03/27 05:21:35;;;;;;;15.25;6.53;;;;;;;5.72;100.00;102928.84;6270779;28;20065;-75
2022/03/27 05:24:38;;;;;;;19.38;6.63;;;;;;;5.70;100.00;102928.00;6271142;28;20447;-75
2022/03/27 05:27:46;;;;;;;21.92;6.93;;;;;;;5.76;100.00;102935.81;6271327;28;20056;-74
2022/03/27 05:30:48;;;;;;;13.60;5.83;;;;;;;5.71;100.00;102938.44;6269579;28;20047;-74
2022/03/27 05:33:49;;;;;;;22.92;6.70;;;;;;;5.69;100.00;102934.09;6269784;28;20056;-75
2022/03/27 05:36:50;;;;;;;15.52;6.50;;;;;;;5.69;100.00;102937.56;6269500;28;20045;-75
2022/03/27 05:39:53;;;;;;;14.48;6.05;;;;;;;5.76;100.00;102947.13;6268934;28;20041;-74
2022/03/27 05:42:55;;;;;;;18.15;6.57;;;;;;;5.79;100.00;102948.88;6269176;28;20049;-75
2022/03/27 05:45:56;;;;;;;13.20;5.10;;;;;;;5.68;100.00;102958.41;6269148;28;20041;-75
2022/03/27 05:48:57;;;;;;;14.82;6.13;;;;;;;5.68;100.00;102961.91;6269444;28;20515;-75
2022/03/27 05:51:59;;;;;;;17.23;6.30;;;;;;;5.78;100.00;102962.81;6268462;28;20048;-75
2022/03/27 05:55:01;;;;;;;17.73;7.60;;;;;;;5.78;100.00;102971.50;6268534;28;20060;-74
2022/03/27 05:58:03;;;;;;;19.88;7.43;;;;;;;5.61;100.00;102954.94;6282349;28;20488;-75
2022/03/27 06:01:04;;;;;;;18.75;6.68;;;;;;;5.66;100.00;102967.97;6292362;28;20057;-75
2022/03/27 06:04:06;;;;;;;22.38;8.35;;;;;;;5.70;100.00;102969.75;6279000;28;20041;-75
2022/03/27 06:07:07;;;;;;;23.23;8.38;;;;;;;5.76;100.00;102975.81;6287559;28;20143;-75
2022/03/27 06:10:11;;;;;;;18.50;7.30;;;;;;;5.81;100.00;102976.75;6289798;28;20045;-74
2022/03/27 06:13:12;;;;;;;26.90;8.52;;;;;;;5.65;100.00;102976.69;6299782;28;20059;-74
2022/03/27 06:16:13;;;;;;;15.02;6.95;;;;;;;5.55;100.00;102981.00;6288003;28;20047;-75
2022/03/27 06:19:14;;;;;;;16.00;6.00;;;;;;;5.56;100.00;102990.56;6274768;28;20060;-74
2022/03/27 06:22:16;;;;;;;14.15;5.45;;;;;;;5.62;100.00;102992.31;6273904;28;20041;-74
2022/03/27 06:25:21;;;;;;;16.30;6.40;;;;;;;5.67;100.00;102987.97;6274227;28;20041;-74
2022/03/27 06:28:22;;;;;;;13.55;5.55;;;;;;;5.75;100.00;102984.53;6274745;28;20037;-74
2022/03/27 06:31:23;;;;;;;9.88;4.93;;;;;;;5.89;100.00;102994.13;6274046;28;20056;-74
2022/03/27 06:34:26;;;;;;;18.25;6.25;;;;;;;5.98;100.00;102992.44;6282963;28;20048;-75
2022/03/27 06:37:29;;;;;;;25.00;6.40;;;;;;;5.88;100.00;102990.66;6274543;28;20123;-75
2022/03/27 06:40:31;;;;;;;14.23;6.35;;;;;;;5.81;100.00;103001.94;6274149;28;20496;-75
2022/03/27 06:43:33;;;;;;;26.92;7.55;;;;;;;5.75;100.00;103008.00;6274703;28;20052;-75
2022/03/27 06:46:35;;;;;;;18.48;6.13;;;;;;;5.68;100.00;103002.75;6274654;28;20520;-74
2022/03/27 06:49:36;;;;;;;15.82;6.70;;;;;;;5.64;100.00;103001.91;6274458;28;20053;-75
2022/03/27 06:52:38;;;;;;;21.20;7.00;;;;;;;5.63;100.00;103007.09;6273736;28;20483;-74
2022/03/27 06:55:40;;;;;;;25.00;8.73;;;;;;;5.62;100.00;103014.06;6274575;28;20045;-75
2022/03/27 06:58:42;;;;;;;27.63;8.23;;;;;;;5.63;100.00;103007.09;6273990;28;20052;-75
2022/03/27 07:05:03;;;;;;;21.65;8.05;;;;;;;5.60;100.00;103014.06;6274272;28;20124;-75
2022/03/27 07:08:05;;;;;;;23.00;7.53;;;;;;;5.73;100.00;103020.19;6273919;28;20440;-74
2022/03/27 07:11:08;;;;;;;26.52;7.82;;;;;;;5.85;100.00;103020.22;6273285;28;20049;-74
2022/03/27 07:14:12;;;;;;;24.35;9.00;;;;;;;5.94;100.00;103008.97;6274219;28;20052;-75
2022/03/27 07:17:15;;;;;;;21.92;6.80;;;;;;;5.92;100.00;103015.06;6273613;28;20059;-74
2022/03/27 07:20:21;;;;;;;22.10;8.60;;;;;;;5.85;100.00;103021.94;6273445;28;20420;-75
2022/03/27 07:23:23;;;;;;;20.30;7.45;;;;;;;5.91;100.00;103019.38;6273780;28;20516;-75
2022/03/27 07:26:25;;;;;;;20.90;6.85;;;;;;;5.91;100.00;103024.59;6273823;28;20055;-74
2022/03/27 07:29:27;;;;;;;20.77;7.40;;;;;;;5.97;100.00;103018.53;6273261;28;20420;-75
2022/03/27 07:32:28;;;;;;;27.00;8.65;;;;;;;5.96;100.00;103015.06;6272701;28;20075;-74
2022/03/27 07:35:30;;;;;;;25.20;7.68;;;;;;;5.91;100.00;103014.16;6273475;28;20048;-74
2022/03/27 07:38:31;;;;;;;25.60;8.35;;;;;;;5.85;100.00;103008.91;6271324;28;20514;-75
2022/03/27 07:41:34;;;;;;;22.02;7.53;;;;;;;5.82;100.00;103009.78;6272471;28;20420;-75
2022/03/27 07:44:35;;;;;;;16.17;7.88;;;;;;;5.96;100.00;103019.41;6272365;28;20052;-75
2022/03/27 07:47:37;;;;;;;18.33;6.47;;;;;;;6.01;100.00;103012.47;6272930;28;20045;-74
2022/03/27 07:50:39;;;;;;;20.58;6.85;;;;;;;6.01;100.00;103017.69;6272149;28;20049;-75
2022/03/27 07:53:40;;;;;;;16.63;5.93;;;;;;;5.95;100.00;103018.56;6270233;28;20072;-74
2022/03/27 07:56:43;;;;;;;18.58;8.00;;;;;;;5.88;100.00;103014.13;6276647;28;20049;-74
2022/03/27 07:59:45;;;;;;;21.98;6.85;;;;;;;5.92;100.00;103017.66;6285847;28;20492;-74
2022/03/27 08:02:46;;;;;;;18.63;7.22;;;;;;;6.04;100.00;103021.19;6281209;28;20045;-75
2022/03/27 08:05:48;;;;;;;14.20;5.90;;;;;;;6.21;100.00;103018.59;6270872;28;20431;-75
2022/03/27 08:08:49;;;;;;;18.10;7.18;;;;;;;6.23;100.00;103014.25;6280697;28;20053;-74
2022/03/27 08:11:52;;;;;;;16.58;7.38;;;;;;;6.17;100.00;103015.97;6271625;28;20048;-75
2022/03/27 08:14:54;;;;;;;20.25;7.80;;;;;;;6.11;100.00;103016.84;6272512;28;20499;-75
2022/03/27 08:17:55;;;;;;;16.90;6.97;;;;;;;6.09;100.00;103010.75;6269275;28;20057;-75
2022/03/27 08:20:56;;;;;;;22.17;7.70;;;;;;;6.19;100.00;103016.84;6281520;28;20041;-75
2022/03/27 08:23:58;;;;;;;16.83;6.50;;;;;;;6.19;100.00;103022.06;6296828;28;20056;-75
2022/03/27 08:27:02;;;;;;;16.15;7.15;;;;;;;6.20;100.00;103022.06;6296906;28;20048;-75
2022/03/27 08:30:06;;;;;;;26.02;7.35;;;;;;;6.26;100.00;103024.69;6296634;28;20052;-70
2022/03/27 08:33:08;;;;;;;18.63;6.15;;;;;;;6.35;100.00;103029.03;6273595;28;20052;-75
2022/03/27 08:36:10;;;;;;;18.95;7.10;;;;;;;6.23;100.00;103022.09;6272054;28;20053;-76
2022/03/27 08:39:11;;;;;;;17.20;6.18;;;;;;;6.33;100.00;103016.00;6272196;28;20493;-76
2022/03/27 08:42:16;;;;;;;17.00;7.72;;;;;;;6.49;100.00;103022.06;6271483;28;20049;-75
2022/03/27 08:45:17;;;;;;;22.17;7.53;;;;;;;6.49;100.00;103031.66;6271935;28;20180;-75
2022/03/27 08:48:19;;;;;;;17.58;5.85;;;;;;;6.50;100.00;103034.28;6288285;28;20487;-75
2022/03/27 08:51:30;;;;;;;23.88;7.15;;;;;;;6.67;100.00;103034.28;6295894;28;20099;-75
2022/03/27 08:54:38;;;;;;;14.77;6.05;;;;;;;6.76;100.00;103034.25;6296889;28;20053;-75
2022/03/27 08:57:55;;;;;;;14.10;6.20;;;;;;;6.90;100.00;103041.22;6296447;28;20055;-76
2022/03/27 09:00:57;;;;;;;17.33;4.97;;;;;;;6.97;100.00;103038.63;6296089;28;20052;-76
2022/03/27 09:03:58;;;;;;;14.80;5.80;;;;;;;6.85;100.00;103031.66;6296203;28;20048;-75
2022/03/27 09:07:01;;;;;;;13.15;5.05;;;;;;;6.78;100.00;103037.78;6275298;28;20048;-75
2022/03/27 09:10:07;;;;;;;15.23;6.28;;;;;;;6.70;100.00;103036.91;6267196;28;20435;-75
2022/03/27 09:13:17;;;;;;;12.95;5.78;;;;;;;6.85;100.00;103031.66;6263362;28;20045;-75
2022/03/27 09:16:18;;;;;;;20.08;6.03;;;;;;;7.00;100.00;103035.13;6265352;28;20041;-76
2022/03/27 09:19:32;;;;;;;14.00;5.57;;;;;;;7.08;100.00;103031.59;6265446;28;20037;-76
2022/03/27 09:22:34;;;;;;;12.63;5.35;;;;;;;7.02;100.00;103034.25;6269464;28;20053;-76
2022/03/27 09:25:51;;;;;;;12.98;5.38;;;;;;;7.05;100.00;103041.22;6259359;28;20497;-75
2022/03/27 09:28:57;;;;;;;16.90;5.25;;;;;;;7.22;100.00;103034.22;6262970;28;20045;-76
2022/03/27 09:31:58;;;;;;;19.60;8.10;;;;;;;7.15;100.00;103022.03;6265162;28;20048;-76
2022/03/27 09:35:04;;;;;;;26.67;7.53;;;;;;;7.14;100.00;103016.81;6266708;28;20530;-76
2022/03/27 09:38:19;;;;;;;19.98;7.70;;;;;;;7.07;100.00;103023.78;6272385;28;20055;-76
2022/03/27 09:41:32;;;;;;;20.20;7.22;;;;;;;6.89;100.00;103019.44;6275232;28;20489;-76
2022/03/27 09:44:38;;;;;;;22.08;7.95;;;;;;;6.94;100.00;103025.53;6273040;28;20124;-76
2022/03/27 09:47:40;;;;;;;21.48;8.43;;;;;;;6.98;100.00;103015.97;6272050;28;20067;-76
2022/03/27 09:50:42;;;;;;;24.10;8.27;;;;;;;7.03;100.00;103014.19;6272981;28;20048;-76
2022/03/27 09:53:43;;;;;;;20.35;6.93;;;;;;;6.96;100.00;103017.72;6274129;28;20071;-76
2022/03/27 09:56:45;;;;;;;23.25;7.70;;;;;;;6.89;100.00;103011.59;6274789;28;20043;-75
2022/03/27 09:59:48;;;;;;;18.52;6.43;;;;;;;6.93;100.00;103007.25;6288258;28;20610;-76
2022/03/27 10:02:51;;;;;;;15.68;6.78;;;;;;;7.00;100.00;103009.00;6286611;28;20419;-76
2022/03/27 10:05:52;;;;;;;20.95;7.10;;;;;;;6.95;100.00;103013.34;6280299;28;20056;-76
2022/03/27 10:08:53;;;;;;;20.77;7.40;;;;;;;6.96;100.00;103010.75;6275548;28;20048;-76
2022/03/27 10:11:56;;;;;;;18.08;5.88;;;;;;;7.17;100.00;103003.69;6270993;28;20060;-75
2022/03/27 10:15:03;;;;;;;19.15;6.28;;;;;;;7.20;100.00;102999.34;6275361;28;20053;-76
2022/03/27 10:18:11;;;;;;;14.23;5.20;;;;;;;7.17;100.00;103007.19;6266429;28;20045;-76
2022/03/27 10:21:13;;;;;;;14.13;6.13;;;;;;;7.24;100.00;103008.91;6267784;28;20061;-76
2022/03/27 10:24:16;;;;;;;14.57;5.45;;;;;;;7.31;100.00;102994.97;6274936;28;20132;-76
2022/03/27 10:27:19;;;;;;;22.52;6.82;;;;;;;7.31;100.00;102999.28;6274795;28;20045;-76
2022/03/27 10:30:24;;;;;;;19.58;7.28;;;;;;;7.31;100.00;103005.44;6274363;28;20056;-76
2022/03/27 10:33:27;;;;;;;21.80;8.80;;;;;;;7.28;100.00;102999.34;6283567;28;20131;-76
2022/03/27 10:36:40;;;;;;;22.30;8.10;;;;;;;7.27;100.00;102990.63;6299874;28;20049;-81
2022/03/27 10:39:49;;;;;;;21.42;7.43;;;;;;;7.42;100.00;102986.19;6299455;28;20059;-76
2022/03/27 10:42:57;;;;;;;14.20;6.28;;;;;;;7.45;100.00;102987.06;6293348;28;20049;-77
2022/03/27 10:46:18;;;;;;;19.13;6.15;;;;;;;7.62;100.00;102979.97;6272960;28;20049;-77
2022/03/27 10:49:19;;;;;;;21.92;6.13;;;;;;;7.65;100.00;102975.63;6262957;28;20045;-76
2022/03/27 10:52:21;;;;;;;16.85;5.75;;;;;;;7.77;100.00;102963.34;6269730;28;20052;-77
2022/03/27 10:55:22;;;;;;;25.98;8.10;;;;;;;7.99;100.00;102971.91;6274446;28;20045;-76
2022/03/27 10:58:35;;;;;;;20.25;7.47;;;;;;;8.16;100.00;102978.78;6274288;28;20068;-76
2022/03/27 11:01:40;;;;;;;28.77;9.15;;;;;;;8.18;100.00;102974.41;6275893;28;20049;-76
2022/03/27 11:04:44;;;;;;;15.98;6.07;;;;;;;8.22;100.00;102969.16;6290316;28;20060;-76
2022/03/27 11:07:45;;;;;;;18.63;6.85;;;;;;;8.14;100.00;102970.94;6273615;28;20068;-76
2022/03/27 11:10:49;;;;;;;14.23;6.45;;;;;;;8.12;100.00;102973.56;6284975;28;20051;-76
2022/03/27 11:13:51;;;;;;;21.42;6.70;;;;;;;7.86;100.00;102968.53;6299009;28;20492;-76
2022/03/27 11:17:17;;;;;;;18.52;8.07;;;;;;;8.06;100.00;102975.38;6298699;28;20052;-76
2022/03/27 11:20:47;;;;;;;19.65;6.80;;;;;;;8.06;100.00;102967.50;6282877;28;20071;-76
2022/03/27 11:23:49;;;;;;;23.70;7.35;;;;;;;8.05;100.00;102957.91;6298926;28;20044;-76
2022/03/27 11:26:51;;;;;;;26.45;8.20;;;;;;;8.02;100.00;102964.03;6298427;28;20492;-76
2022/03/27 11:30:10;;;;;;;21.83;7.70;;;;;;;8.21;100.00;102943.81;6298253;28;20426;-76
2022/03/27 11:33:19;;;;;;;17.73;7.60;;;;;;;8.19;100.00;102944.72;6298047;28;20052;-76
2022/03/27 11:36:25;;;;;;;28.98;8.88;;;;;;;8.23;100.00;102941.19;6298509;28;20105;-76
2022/03/27 11:39:35;;;;;;;35.63;9.65;;;;;;;8.29;100.00;102944.63;6298294;28;20137;-76
2022/03/27 11:42:37;;;;;;;24.02;6.72;;;;;;;8.43;100.00;102939.28;6297679;28;20523;-76
2022/03/27 11:45:40;;;;;;;24.55;9.18;;;;;;;8.35;100.00;102944.56;6298117;28;20044;-76
2022/03/27 11:48:42;;;;;;;22.63;7.78;;;;;;;8.46;100.00;102939.28;6298179;28;20052;-76
2022/03/27 11:51:44;;;;;;;23.42;8.38;;;;;;;8.51;100.00;102937.47;6297374;28;20056;-76
2022/03/27 11:54:47;;;;;;;47.42;12.38;;;;;;;8.52;100.00;102939.22;6297690;28;20456;-76
2022/03/27 11:57:51;;;;;;;28.25;9.27;;;;;;;8.69;100.00;102932.94;6284840;28;20047;-76
2022/03/27 12:00:52;;;;;;;30.20;9.93;;;;;;;8.78;100.00;102927.59;6288060;28;20159;-76
2022/03/27 12:03:58;;;;;;;41.55;11.40;;;;;;;8.82;100.00;102921.44;6285356;28;20048;-72
2022/03/27 12:07:02;;;;;;;37.53;12.57;;;;;;;9.11;100.00;102923.72;6280273;28;20045;-76
2022/03/27 12:10:05;;;;;;;31.77;11.48;;;;;;;9.12;100.00;102926.31;6269355;28;20049;-76
2022/03/27 12:13:08;;;;;;;32.33;10.55;;;;;;;9.13;100.00;102922.81;6276963;28;20491;-76
2022/03/27 12:16:16;;;;;;;42.33;14.35;;;;;;;8.96;100.00;102916.03;6273504;28;20059;-74
2022/03/27 12:19:19;;;;;;;47.65;15.65;;;;;;;9.23;100.00;102913.06;6270613;28;20051;-76
2022/03/27 12:22:32;;;;;;;42.38;13.15;;;;;;;9.37;100.00;102907.66;6271560;28;20064;-74
2022/03/27 12:25:33;;;;;;;32.40;12.02;;;;;;;9.31;100.00;102905.09;6273771;28;20045;-76
2022/03/27 12:31:54;;;;;;;27.90;10.80;;;;;;;9.79;100.00;102893.00;6270521;28;20049;-73
2022/03/27 12:35:01;;;;;;;32.45;11.25;;;;;;;9.38;100.00;102893.63;6270787;28;20037;-73
2022/03/27 12:38:03;;;;;;;32.08;10.45;;;;;;;9.42;100.00;102892.69;6271615;28;20561;-75
2022/03/27 12:41:04;;;;;;;31.65;9.27;;;;;;;10.01;100.00;102888.28;6271627;28;20132;-75
2022/03/27 12:44:06;;;;;;;37.22;11.70;;;;;;;10.11;100.00;102889.88;6271549;28;20049;-74
2022/03/27 12:47:07;;;;;;;35.92;12.63;;;;;;;10.14;100.00;102875.81;6270980;28;20045;-74
2022/03/27 12:50:15;;;;;;;31.52;11.57;;;;;;;10.35;100.00;102880.72;6271269;28;20045;-74
2022/03/27 12:53:26;;;;;;;34.90;14.07;;;;;;;10.85;100.00;102880.63;6271668;28;20420;-75
2022/03/27 12:56:27;;;;;;;30.60;12.73;;;;;;;11.19;100.00;102875.56;6263325;28;20056;-74
2022/03/27 12:59:29;;;;;;;26.50;11.20;;;;;;;11.14;100.00;102880.06;6267710;28;20436;-74
2022/03/27 13:02:31;;;;;;;39.63;12.35;;;;;;;11.05;100.00;102877.63;6270934;28;20056;-74
2022/03/27 13:05:33;;;;;;;24.63;10.70;;;;;;;10.56;100.00;102870.72;6265159;28;20045;-74
2022/03/27 13:08:38;;;;;;;37.47;12.02;;;;;;;10.48;100.00;102862.94;6268830;28;20056;-74
2022/03/27 13:11:41;;;;;;;35.72;12.27;;;;;;;10.67;100.00;102866.09;6270609;28;20065;-74
2022/03/27 13:14:46;;;;;;;27.83;10.52;;;;;;;10.75;100.00;102860.69;6268087;28;20484;-74
2022/03/27 13:18:05;;;;;;;34.78;9.63;;;;;;;10.90;100.00;102855.09;6271122;28;20049;-74
2022/03/27 13:21:14;;;;;;;25.50;10.10;;;;;;;10.66;100.00;102846.81;6268283;28;20052;-74
2022/03/27 13:24:18;;;;;;;25.75;9.15;;;;;;;11.23;100.00;102850.03;6271392;28;20053;-74
2022/03/27 13:27:20;;;;;;;28.20;10.82;;;;;;;11.16;100.00;102842.25;6268806;28;20048;-74
2022/03/27 13:30:21;;;;;;;27.50;10.07;;;;;;;11.36;100.00;102839.19;6259789;28;20052;-75
2022/03/27 13:33:23;;;;;;;26.92;10.20;;;;;;;11.77;100.00;102829.44;6270191;28;20064;-74
2022/03/27 13:36:26;;;;;;;22.85;10.82;;;;;;;11.77;100.00;102826.81;6270284;28;20045;-74
2022/03/27 13:39:28;;;;;;;30.67;10.75;;;;;;;11.90;100.00;102830.03;6271016;28;20053;-74
2022/03/27 13:45:48;;;;;;;23.33;9.13;;;;;;;12.34;100.00;102820.06;6270462;28;20123;-75
2022/03/27 13:48:50;;;;;;;20.65;9.18;;;;;;;12.27;100.00;102813.25;6269275;28;20053;-75
2022/03/27 13:51:52;;;;;;;22.80;9.20;;;;;;;12.26;100.00;102806.22;6269359;28;20076;-74
2022/03/27 13:54:54;;;;;;;18.35;6.95;;;;;;;12.08;100.00;102808.47;6268209;28;20134;-74
2022/03/27 13:57:55;;;;;;;18.50;6.63;;;;;;;11.91;100.00;102805.41;6265836;28;20052;-75
2022/03/27 14:00:56;;;;;;;19.73;6.55;;;;;;;11.87;100.00;102803.75;6268997;28;20045;-75
2022/03/27 14:03:58;;;;;;;16.77;6.50;;;;;;;12.02;100.00;102805.97;6269921;28;20076;-74
2022/03/27 14:07:01;;;;;;;17.52;5.35;;;;;;;12.01;100.00;102806.91;6270359;28;20492;-74
2022/03/27 14:10:03;;;;;;;14.07;6.68;;;;;;;11.87;100.00;102804.63;6270569;28;20056;-74
2022/03/27 14:13:04;;;;;;;12.30;5.43;;;;;;;12.13;100.00;102803.94;6275671;28;20127;-74